Time;durP1;ratioP1;P1;durP2;ratioP2;P2;SDS_P1;SDS_P2;PMS_P1;PMS_P2;Temp;Humidity;BMP_temperature;BMP_pressure;BME280_temperature;BME280_humidity;BME280_pressure;Samples;Min_cycle;Max_cycle;Signal;HPM_P1;HPM_P2
2021/10/04 00:00:01;;;;;;;11.03;8.27;;;12.60;99.90;;;;;;5074667;28;20216;-66
2021/10/04 00:02:28;;;;;;;12.73;8.87;;;12.60;99.90;;;;;;5074422;28;20558;-65
2021/10/04 00:04:55;;;;;;;13.47;8.60;;;12.70;99.90;;;;;;5066278;28;20213;-66
2021/10/04 00:07:22;;;;;;;11.97;7.77;;;12.50;99.90;;;;;;5074782;28;20260;-65
2021/10/04 00:09:49;;;;;;;11.30;7.93;;;12.50;99.90;;;;;;5074717;28;20231;-64
2021/10/04 00:12:17;;;;;;;14.83;7.97;;;12.50;99.90;;;;;;5074383;28;20731;-64
2021/10/04 00:14:44;;;;;;;13.50;8.67;;;12.50;99.90;;;;;;5074209;28;20197;-65
2021/10/04 00:17:12;;;;;;;13.87;7.70;;;12.50;99.90;;;;;;5074373;28;20224;-65
2021/10/04 00:19:39;;;;;;;13.10;8.53;;;12.50;99.90;;;;;;5074283;28;20213;-66
2021/10/04 00:22:06;;;;;;;9.93;8.33;;;12.50;99.90;;;;;;5074354;28;20201;-65
2021/10/04 00:24:33;;;;;;;12.20;8.00;;;12.50;99.90;;;;;;5074216;28;20216;-65
2021/10/04 00:27:00;;;;;;;11.87;8.57;;;12.50;99.90;;;;;;5074927;28;20201;-64
2021/10/04 00:29:28;;;;;;;11.57;8.37;;;12.50;99.90;;;;;;5074087;28;20550;-65
2021/10/04 00:31:57;;;;;;;12.63;8.73;;;12.40;99.90;;;;;;5073898;28;20224;-65
2021/10/04 00:34:23;;;;;;;12.00;8.73;;;12.40;99.90;;;;;;5073699;28;20237;-64
2021/10/04 00:36:50;;;;;;;11.03;8.10;;;12.40;99.90;;;;;;5073926;28;20232;-64
2021/10/04 00:39:17;;;;;;;11.07;8.33;;;12.40;99.90;;;;;;5073184;28;20213;-65
2021/10/04 00:41:44;;;;;;;10.60;7.67;;;12.40;99.90;;;;;;5073844;28;20568;-64
2021/10/04 00:44:11;;;;;;;11.17;8.07;;;12.40;99.90;;;;;;5072196;28;20201;-64
2021/10/04 00:46:40;;;;;;;9.90;7.83;;;12.40;99.90;;;;;;5073783;28;20208;-65
2021/10/04 00:49:06;;;;;;;12.23;8.07;;;12.40;99.90;;;;;;5062156;28;20213;-66
2021/10/04 00:51:34;;;;;;;14.70;8.80;;;12.40;99.90;;;;;;5073916;28;20682;-65
2021/10/04 00:54:01;;;;;;;9.93;7.77;;;12.50;99.90;;;;;;5073120;28;20296;-65
2021/10/04 00:56:28;;;;;;;10.77;7.80;;;12.40;99.90;;;;;;5073501;28;20743;-66
2021/10/04 00:58:55;;;;;;;9.80;7.70;;;12.40;99.90;;;;;;5073817;28;20291;-65
2021/10/04 01:01:23;;;;;;;9.97;8.10;;;12.40;99.90;;;;;;5073023;28;20228;-64
2021/10/04 01:03:51;;;;;;;12.73;8.40;;;12.40;99.90;;;;;;5072945;28;20279;-64
2021/10/04 01:06:18;;;;;;;10.33;7.27;;;12.40;99.90;;;;;;5073588;28;20193;-65
2021/10/04 01:08:45;;;;;;;9.27;7.70;;;12.40;99.90;;;;;;5073435;28;20205;-65
2021/10/04 01:11:12;;;;;;;15.07;8.87;;;12.40;99.90;;;;;;5069941;28;20208;-64
2021/10/04 01:13:39;;;;;;;12.17;8.50;;;12.50;99.90;;;;;;5073307;28;20613;-64
2021/10/04 01:16:06;;;;;;;12.43;7.93;;;12.40;99.90;;;;;;5073303;28;20654;-65
2021/10/04 01:18:34;;;;;;;11.47;7.37;;;12.40;99.90;;;;;;5073574;28;20208;-66
2021/10/04 01:21:03;;;;;;;10.73;7.80;;;12.40;99.90;;;;;;5066392;28;20217;-66
2021/10/04 01:23:30;;;;;;;11.90;7.97;;;12.40;99.90;;;;;;5073209;28;20211;-65
2021/10/04 01:25:57;;;;;;;14.40;8.37;;;12.50;99.90;;;;;;5073507;28;20213;-66
2021/10/04 01:28:24;;;;;;;11.13;8.07;;;12.40;99.90;;;;;;5073142;28;20197;-66
2021/10/04 01:30:51;;;;;;;10.03;7.77;;;12.50;99.90;;;;;;5073489;28;20201;-65
2021/10/04 01:33:18;;;;;;;10.13;7.70;;;12.40;99.90;;;;;;5072826;28;20595;-64
2021/10/04 01:35:45;;;;;;;12.77;8.07;;;12.50;99.90;;;;;;5072673;28;20221;-63
2021/10/04 01:38:13;;;;;;;12.43;8.20;;;12.50;99.90;;;;;;5073071;28;20225;-65
2021/10/04 01:40:43;;;;;;;12.83;8.43;;;12.50;99.90;;;;;;5073605;28;20563;-65
2021/10/04 01:43:10;;;;;;;14.63;7.50;;;12.50;99.90;;;;;;5073097;28;20756;-66
2021/10/04 01:45:38;;;;;;;11.47;7.67;;;12.40;99.90;;;;;;5072512;28;20296;-65
2021/10/04 01:48:05;;;;;;;10.87;7.37;;;12.50;99.90;;;;;;5073046;28;20205;-65
2021/10/04 01:50:35;;;;;;;8.60;7.23;;;12.50;99.90;;;;;;5072713;28;20209;-65
2021/10/04 01:53:03;;;;;;;12.53;7.93;;;11.50;99.90;;;;;;5073033;28;20216;-65
2021/10/04 01:55:31;;;;;;;14.93;8.73;;;12.50;99.90;;;;;;5072385;28;20220;-66
2021/10/04 01:57:58;;;;;;;11.83;7.83;;;12.50;99.90;;;;;;5071383;28;20221;-65
2021/10/04 02:00:25;;;;;;;9.33;7.60;;;12.50;99.90;;;;;;5072144;28;20296;-65
2021/10/04 02:02:54;;;;;;;13.03;8.43;;;12.50;99.90;;;;;;5072315;28;20205;-66
2021/10/04 02:05:25;;;;;;;11.40;7.73;;;12.50;99.90;;;;;;5072432;28;20225;-65
2021/10/04 02:07:53;;;;;;;10.27;7.27;;;12.50;99.90;;;;;;5072318;28;20205;-65
2021/10/04 02:10:24;;;;;;;12.27;8.03;;;12.50;99.90;;;;;;5072635;28;20201;-66
2021/10/04 02:12:52;;;;;;;11.53;6.97;;;12.50;99.90;;;;;;5071379;28;20221;-65
2021/10/04 02:15:19;;;;;;;9.97;7.50;;;12.50;99.90;;;;;;5072182;28;20215;-65
2021/10/04 02:17:46;;;;;;;11.70;7.97;;;12.50;99.90;;;;;;5071766;28;20261;-66
2021/10/04 02:20:16;;;;;;;11.73;8.20;;;12.60;99.90;;;;;;5071627;28;20209;-66
2021/10/04 02:22:43;;;;;;;12.37;7.93;;;12.50;99.90;;;;;;5072059;28;20209;-65
2021/10/04 02:25:11;;;;;;;9.83;7.27;;;12.60;99.90;;;;;;5071391;28;20676;-65
2021/10/04 02:27:38;;;;;;;12.37;8.10;;;12.60;99.90;;;;;;5071827;28;20667;-65
2021/10/04 02:30:12;;;;;;;12.63;7.83;;;12.60;99.90;;;;;;5071093;28;20205;-66
2021/10/04 02:32:39;;;;;;;10.00;7.93;;;12.60;99.90;;;;;;5071640;28;20212;-65
2021/10/04 02:35:08;;;;;;;11.83;7.47;;;12.60;99.90;;;;;;5071963;28;20611;-65
2021/10/04 02:37:35;;;;;;;12.23;7.40;;;12.60;99.90;;;;;;5071875;28;20308;-66
2021/10/04 02:40:03;;;;;;;9.50;7.63;;;12.60;99.90;;;;;;5072207;28;20211;-65
2021/10/04 02:42:29;;;;;;;10.30;7.60;;;12.60;99.90;;;;;;5072027;28;20562;-66
2021/10/04 02:44:56;;;;;;;8.93;7.93;;;12.60;99.90;;;;;;5072316;28;20216;-66
2021/10/04 02:47:24;;;;;;;10.57;7.93;;;12.70;99.90;;;;;;5061453;28;20284;-65
2021/10/04 02:49:51;;;;;;;8.67;7.77;;;12.70;99.90;;;;;;5071755;28;20209;-65
2021/10/04 02:52:18;;;;;;;10.13;7.67;;;12.70;99.90;;;;;;5071600;28;20209;-66
2021/10/04 02:54:46;;;;;;;12.10;8.47;;;12.70;99.90;;;;;;5071574;28;20683;-66
2021/10/04 02:57:15;;;;;;;9.50;7.50;;;12.70;99.90;;;;;;5071096;28;20223;-64
2021/10/04 02:59:42;;;;;;;9.97;7.20;;;12.70;99.90;;;;;;5070612;28;20207;-65
2021/10/04 03:02:09;;;;;;;8.97;7.37;;;12.70;99.90;;;;;;5071331;28;20224;-64
2021/10/04 03:04:37;;;;;;;10.13;7.80;;;12.70;99.90;;;;;;5071438;28;20216;-66
2021/10/04 03:07:05;;;;;;;8.83;7.83;;;12.70;99.90;;;;;;5070710;28;20207;-65
2021/10/04 03:09:32;;;;;;;9.60;7.80;;;12.70;99.90;;;;;;5071722;28;20232;-66
2021/10/04 03:11:59;;;;;;;12.23;8.23;;;12.70;99.90;;;;;;5071169;28;20308;-66
2021/10/04 03:14:26;;;;;;;10.07;7.47;;;12.70;99.90;;;;;;5057474;28;20206;-65
2021/10/04 03:16:53;;;;;;;12.00;7.43;;;12.70;99.90;;;;;;5071203;28;20220;-65
2021/10/04 03:19:20;;;;;;;11.33;7.27;;;12.70;99.90;;;;;;5071561;28;20211;-66
2021/10/04 03:21:48;;;;;;;20.57;8.10;;;12.70;99.90;;;;;;5072008;28;20292;-65
2021/10/04 03:24:15;;;;;;;10.27;8.10;;;12.70;99.90;;;;;;5071516;28;20205;-66
2021/10/04 03:26:42;;;;;;;11.07;8.03;;;12.70;99.90;;;;;;5071560;28;20205;-65
2021/10/04 03:29:10;;;;;;;10.13;7.67;;;12.80;99.90;;;;;;5071450;28;20209;-66
2021/10/04 03:31:37;;;;;;;12.10;7.80;;;12.80;99.90;;;;;;5070522;28;20206;-66
2021/10/04 03:34:04;;;;;;;9.77;7.40;;;12.80;99.90;;;;;;5070849;28;20236;-65
2021/10/04 03:36:32;;;;;;;11.27;7.70;;;12.80;99.90;;;;;;5070898;28;20237;-66
2021/10/04 03:39:01;;;;;;;9.07;7.10;;;12.80;99.90;;;;;;5071519;28;20213;-66
2021/10/04 03:41:28;;;;;;;11.90;8.10;;;12.80;99.90;;;;;;5071839;28;20208;-66
2021/10/04 03:43:55;;;;;;;9.43;7.33;;;12.80;99.90;;;;;;5070956;28;20574;-66
2021/10/04 03:46:23;;;;;;;11.97;7.40;;;12.70;99.90;;;;;;5071262;28;20201;-65
2021/10/04 03:48:50;;;;;;;9.20;6.97;;;12.80;99.90;;;;;;5069300;28;20202;-66
2021/10/04 03:51:18;;;;;;;10.07;7.63;;;12.90;99.90;;;;;;5071660;28;20202;-64
2021/10/04 03:53:45;;;;;;;10.20;7.77;;;12.90;99.90;;;;;;5070200;28;20221;-66
2021/10/04 03:56:13;;;;;;;12.37;7.87;;;12.90;99.90;;;;;;5071225;28;20430;-65
2021/10/04 03:58:40;;;;;;;9.57;7.20;;;12.90;99.90;;;;;;5070812;28;20386;-65
2021/10/04 04:01:07;;;;;;;8.90;7.43;;;12.90;99.90;;;;;;5070355;28;20260;-65
2021/10/04 04:03:34;;;;;;;10.80;7.60;;;12.90;99.90;;;;;;5071079;28;20209;-66
2021/10/04 04:06:01;;;;;;;8.97;7.57;;;12.90;99.90;;;;;;5070969;28;20205;-65
2021/10/04 04:08:29;;;;;;;9.90;7.40;;;12.90;99.90;;;;;;5071422;28;20205;-65
2021/10/04 04:10:58;;;;;;;11.30;7.33;;;12.90;99.90;;;;;;5071152;28;20716;-65
2021/10/04 04:13:26;;;;;;;12.03;7.17;;;12.90;99.90;;;;;;5066552;28;20288;-66
2021/10/04 04:15:53;;;;;;;8.97;7.20;;;12.80;99.90;;;;;;5070445;28;20213;-65
2021/10/04 04:18:20;;;;;;;9.37;7.60;;;12.80;99.90;;;;;;5073142;28;20217;-65
2021/10/04 04:20:47;;;;;;;11.60;7.93;;;12.80;99.90;;;;;;5075298;28;20650;-65
2021/10/04 04:23:14;;;;;;;11.27;7.63;;;12.80;99.90;;;;;;5074621;28;20205;-65
2021/10/04 04:25:41;;;;;;;10.13;7.00;;;12.80;99.90;;;;;;5074025;28;20692;-65
2021/10/04 04:28:08;;;;;;;14.53;7.90;;;12.80;99.90;;;;;;5073855;28;20203;-65
2021/10/04 04:30:36;;;;;;;12.43;7.57;;;12.80;99.90;;;;;;5074459;28;20209;-66
2021/10/04 04:33:03;;;;;;;9.73;7.47;;;12.80;99.90;;;;;;5073813;28;20237;-65
2021/10/04 04:35:30;;;;;;;11.70;7.93;;;12.80;99.90;;;;;;5073538;28;20292;-65
2021/10/04 04:37:56;;;;;;;11.50;6.97;;;12.80;99.90;;;;;;5073834;28;20237;-66
2021/10/04 04:40:23;;;;;;;12.57;7.43;;;12.80;99.90;;;;;;5073675;28;20209;-65
2021/10/04 04:42:50;;;;;;;12.93;7.80;;;12.70;99.90;;;;;;5073418;28;20209;-64
2021/10/04 04:45:19;;;;;;;11.70;7.40;;;12.70;99.90;;;;;;5073652;28;20205;-65
2021/10/04 04:47:49;;;;;;;8.03;7.20;;;12.70;99.90;;;;;;5073694;28;20197;-64
2021/10/04 04:50:18;;;;;;;9.53;7.27;;;12.70;99.90;;;;;;5073549;28;20205;-65
2021/10/04 04:52:45;;;;;;;8.97;7.57;;;12.70;99.90;;;;;;5073489;28;20216;-65
2021/10/04 04:55:13;;;;;;;8.67;7.33;;;12.70;99.90;;;;;;5073655;28;20568;-66
2021/10/04 04:57:40;;;;;;;12.53;7.33;;;12.70;99.90;;;;;;5073094;28;20227;-66
2021/10/04 05:00:10;;;;;;;9.50;7.57;;;12.70;99.90;;;;;;5073098;28;20753;-66
2021/10/04 05:02:37;;;;;;;12.80;7.67;;;12.70;99.90;;;;;;5072992;28;20559;-64
2021/10/04 05:05:06;;;;;;;11.60;7.23;;;12.80;99.90;;;;;;5072836;28;20263;-65
2021/10/04 05:07:34;;;;;;;11.57;8.13;;;12.80;99.90;;;;;;5073155;28;20201;-66
2021/10/04 05:10:01;;;;;;;10.77;7.57;;;12.80;99.90;;;;;;5073514;28;20223;-65
2021/10/04 05:12:28;;;;;;;10.17;7.90;;;12.80;99.90;;;;;;5073198;28;20217;-65
2021/10/04 05:14:54;;;;;;;11.10;7.17;;;12.80;99.90;;;;;;5072813;28;20661;-65
2021/10/04 05:17:21;;;;;;;12.47;7.83;;;12.80;99.90;;;;;;5071145;28;20220;-66
2021/10/04 05:19:48;;;;;;;8.90;7.10;;;12.80;99.90;;;;;;5072929;28;20208;-65
2021/10/04 05:22:16;;;;;;;10.07;7.80;;;12.90;99.90;;;;;;5072752;28;20209;-65
2021/10/04 05:24:45;;;;;;;10.90;7.30;;;12.80;99.90;;;;;;5072878;28;20205;-65
2021/10/04 05:27:12;;;;;;;9.43;7.00;;;12.80;99.90;;;;;;5072947;28;20684;-64
2021/10/04 05:29:39;;;;;;;10.73;6.93;;;12.90;99.90;;;;;;5072447;28;20635;-66
2021/10/04 05:32:07;;;;;;;13.40;7.77;;;12.90;99.90;;;;;;5072702;28;20220;-66
2021/10/04 05:34:34;;;;;;;11.63;7.70;;;12.90;99.90;;;;;;5072767;28;20247;-65
2021/10/04 05:37:01;;;;;;;10.53;7.07;;;13.00;99.90;;;;;;5072837;28;20229;-66
2021/10/04 05:39:29;;;;;;;9.50;7.50;;;13.00;99.90;;;;;;5073266;28;20221;-68
2021/10/04 05:41:56;;;;;;;10.83;7.17;;;13.00;99.90;;;;;;5072388;28;20564;-67
2021/10/04 05:44:23;;;;;;;9.93;7.30;;;13.00;99.90;;;;;;5072753;28;20274;-66
2021/10/04 05:46:50;;;;;;;9.47;6.97;;;13.00;99.90;;;;;;5072570;28;20213;-69
2021/10/04 05:49:17;;;;;;;11.37;7.33;;;13.00;99.90;;;;;;5072638;28;20676;-70
2021/10/04 05:51:44;;;;;;;10.83;7.80;;;13.00;99.90;;;;;;5072181;28;20212;-68
2021/10/04 05:54:11;;;;;;;12.70;8.00;;;13.00;99.90;;;;;;5072325;28;20205;-67
2021/10/04 05:56:40;;;;;;;11.97;7.50;;;13.00;99.90;;;;;;5072621;28;20312;-68
2021/10/04 05:59:06;;;;;;;11.57;7.37;;;12.90;99.90;;;;;;5072125;28;20249;-68
2021/10/04 06:01:36;;;;;;;15.83;7.90;;;12.90;99.90;;;;;;5071894;28;20203;-68
2021/10/04 06:04:03;;;;;;;13.83;7.30;;;12.90;99.90;;;;;;5072055;28;20212;-68
2021/10/04 06:06:29;;;;;;;11.17;6.87;;;13.00;99.90;;;;;;5071800;28;20202;-64
2021/10/04 06:08:56;;;;;;;10.43;7.23;;;13.00;99.90;;;;;;5070942;28;20207;-65
2021/10/04 06:11:24;;;;;;;11.57;7.30;;;13.00;99.90;;;;;;5068436;28;20205;-64
2021/10/04 06:13:52;;;;;;;12.37;7.30;;;13.10;99.90;;;;;;5070587;28;20673;-66
2021/10/04 06:16:19;;;;;;;9.27;6.97;;;13.10;99.90;;;;;;5068592;28;20672;-66
2021/10/04 06:18:46;;;;;;;10.90;7.57;;;13.20;99.90;;;;;;5067924;28;20289;-66
2021/10/04 06:21:13;;;;;;;10.27;7.23;;;13.30;99.90;;;;;;5070705;28;20213;-66
2021/10/04 06:23:40;;;;;;;10.30;6.90;;;13.30;99.90;;;;;;5070364;28;20201;-65
2021/10/04 06:26:07;;;;;;;11.77;6.93;;;13.40;99.90;;;;;;5071519;28;20205;-67
2021/10/04 06:28:34;;;;;;;10.27;6.63;;;13.40;99.90;;;;;;5071800;28;20200;-67
2021/10/04 06:31:02;;;;;;;12.63;7.03;;;13.60;99.90;;;;;;5071701;28;20295;-66
2021/10/04 06:33:29;;;;;;;11.67;7.17;;;13.60;99.90;;;;;;5071186;28;20693;-68
2021/10/04 06:35:56;;;;;;;10.40;7.30;;;13.70;99.90;;;;;;5071515;28;20221;-67
2021/10/04 06:38:23;;;;;;;13.47;6.87;;;13.80;99.90;;;;;;5071351;28;20232;-66
2021/10/04 06:40:50;;;;;;;10.43;7.47;;;13.90;99.90;;;;;;5070823;28;20667;-68
2021/10/04 06:43:17;;;;;;;9.20;6.90;;;14.10;99.90;;;;;;5071628;28;20663;-65
2021/10/04 06:45:43;;;;;;;13.73;7.20;;;14.10;99.90;;;;;;5071087;28;20215;-66
2021/10/04 06:48:12;;;;;;;9.43;6.63;;;14.20;99.90;;;;;;5071115;28;20300;-66
2021/10/04 06:50:39;;;;;;;12.40;6.77;;;14.30;99.90;;;;;;5070947;28;20228;-67
2021/10/04 06:53:05;;;;;;;10.90;7.10;;;14.40;99.90;;;;;;5070789;28;20219;-65
2021/10/04 06:55:32;;;;;;;10.53;7.33;;;14.50;99.90;;;;;;5071434;28;20211;-65
2021/10/04 06:57:59;;;;;;;11.63;7.20;;;14.50;99.90;;;;;;5070792;28;20217;-64
2021/10/04 07:00:26;;;;;;;9.13;6.80;;;14.60;99.90;;;;;;5070994;28;20237;-66
2021/10/04 07:02:54;;;;;;;9.30;7.50;;;14.90;99.90;;;;;;5070534;28;20216;-64
2021/10/04 07:05:22;;;;;;;14.17;7.63;;;15.20;99.90;;;;;;5070986;28;20213;-64
2021/10/04 07:07:51;;;;;;;6.47;5.77;;;15.60;99.90;;;;;;5063449;28;20208;-64
2021/10/04 07:10:19;;;;;;;10.60;7.47;;;16.00;99.90;;;;;;5065357;28;20297;-64
2021/10/04 07:12:46;;;;;;;8.80;6.70;;;16.10;99.90;;;;;;5070110;28;20641;-64
2021/10/04 07:15:14;;;;;;;13.00;6.83;;;16.20;99.90;;;;;;5068848;28;20212;-64
2021/10/04 07:17:41;;;;;;;10.30;6.63;;;16.20;99.90;;;;;;5070971;28;20214;-64
2021/10/04 07:20:09;;;;;;;12.97;7.23;;;16.10;99.90;;;;;;5070896;28;20209;-65
2021/10/04 07:22:39;;;;;;;8.43;6.40;;;16.20;99.90;;;;;;5070445;28;20292;-63
2021/10/04 07:25:07;;;;;;;9.23;6.47;;;16.20;99.90;;;;;;5071132;28;20220;-64
2021/10/04 07:27:34;;;;;;;13.77;6.27;;;16.40;99.90;;;;;;5071025;28;20213;-62
2021/10/04 07:30:01;;;;;;;14.33;6.63;;;16.60;99.90;;;;;;5070854;28;20739;-64
2021/10/04 07:32:28;;;;;;;11.97;6.40;;;16.80;99.90;;;;;;5070496;28;20205;-65
2021/10/04 07:34:55;;;;;;;8.63;6.13;;;16.90;99.90;;;;;;5069202;28;20294;-64
2021/10/04 07:37:22;;;;;;;11.80;5.90;;;16.90;99.90;;;;;;5067272;28;20223;-66
2021/10/04 07:39:50;;;;;;;8.30;6.43;;;17.00;99.90;;;;;;5069730;28;20286;-65
2021/10/04 07:42:19;;;;;;;10.10;6.13;;;17.00;99.90;;;;;;5070187;28;20197;-65
2021/10/04 07:44:48;;;;;;;7.13;5.87;;;17.20;99.90;;;;;;5069837;28;20205;-67
2021/10/04 07:47:15;;;;;;;9.27;5.80;;;17.30;99.90;;;;;;5070352;28;20566;-68
2021/10/04 07:49:41;;;;;;;9.33;6.37;;;17.40;99.90;;;;;;5071639;28;20296;-68
2021/10/04 07:52:08;;;;;;;9.40;5.90;;;17.50;99.90;;;;;;5072079;28;20736;-67
2021/10/04 07:54:35;;;;;;;6.97;5.40;;;17.60;99.90;;;;;;5074902;28;20292;-69
2021/10/04 07:57:04;;;;;;;10.63;6.38;;;17.90;99.90;;;;;;5075133;28;20209;-68
2021/10/04 07:59:31;;;;;;;8.50;6.30;;;18.00;99.90;;;;;;5070890;28;20247;-69
2021/10/04 08:01:58;;;;;;;7.33;5.63;;;18.10;99.90;;;;;;5073842;28;20209;-69
2021/10/04 08:04:26;;;;;;;12.47;6.33;;;18.30;99.90;;;;;;5071714;28;20206;-68
2021/10/04 08:06:53;;;;;;;8.93;5.75;;;18.40;99.90;;;;;;5070710;28;20216;-67
2021/10/04 08:09:20;;;;;;;9.98;6.60;;;18.50;99.90;;;;;;5070598;28;20201;-70
2021/10/04 08:11:47;;;;;;;8.93;6.07;;;18.50;99.90;;;;;;5070856;28;20202;-68
2021/10/04 08:14:15;;;;;;;9.82;6.45;;;18.60;99.90;;;;;;5070190;28;20296;-68
2021/10/04 08:16:43;;;;;;;11.00;6.07;;;18.70;99.90;;;;;;5073491;28;20225;-67
2021/10/04 08:19:09;;;;;;;9.77;6.28;;;18.80;99.90;;;;;;5075176;28;20225;-69
2021/10/04 08:21:36;;;;;;;8.80;6.20;;;19.00;99.90;;;;;;5072072;28;20209;-69
2021/10/04 08:24:04;;;;;;;13.77;6.13;;;19.20;99.90;;;;;;5073197;28;20296;-69
2021/10/04 08:26:31;;;;;;;7.00;5.25;;;19.30;99.90;;;;;;5072682;28;20220;-69
2021/10/04 08:28:58;;;;;;;8.00;5.68;;;19.50;99.90;;;;;;5073919;28;20281;-68
2021/10/04 08:31:29;;;;;;;12.30;6.13;;;19.60;99.90;;;;;;5074299;28;20215;-69
2021/10/04 08:33:57;;;;;;;6.63;5.35;;;19.80;99.90;;;;;;5073692;28;20260;-69
2021/10/04 08:36:24;;;;;;;6.97;6.28;;;19.90;99.90;;;;;;5072937;28;20252;-69
2021/10/04 08:38:51;;;;;;;7.55;5.47;;;20.10;99.90;;;;;;5073883;28;20225;-69
2021/10/04 08:41:19;;;;;;;6.88;5.28;;;20.20;99.90;;;;;;5074391;28;20219;-68
2021/10/04 08:43:49;;;;;;;10.90;5.45;;;20.30;99.60;;;;;;5073804;28;20212;-68
2021/10/04 08:46:19;;;;;;;6.75;5.25;;;20.50;99.20;;;;;;5073112;28;20562;-70
2021/10/04 08:48:49;;;;;;;8.88;5.53;;;20.80;99.20;;;;;;5073850;28;20193;-67
2021/10/04 08:51:17;;;;;;;6.70;5.40;;;21.00;98.40;;;;;;5072481;28;20211;-69
2021/10/04 08:53:45;;;;;;;7.50;5.35;;;21.30;98.30;;;;;;5067447;28;20592;-70
2021/10/04 08:56:12;;;;;;;6.78;5.30;;;21.70;97.70;;;;;;5074214;28;20666;-70
2021/10/04 08:58:39;;;;;;;8.43;4.88;;;22.30;96.90;;;;;;5074303;28;20734;-70
2021/10/04 09:01:07;;;;;;;9.35;5.38;;;24.40;94.80;;;;;;5072127;28;20211;-68
2021/10/04 09:03:44;;;;;;;8.80;5.53;;;27.40;86.10;;;;;;5072614;28;20212;-71
2021/10/04 09:06:26;;;;;;;11.13;4.97;;;30.20;64.60;;;;;;5073317;28;20216;-68
2021/10/04 09:08:54;;;;;;;6.80;4.85;;;32.80;54.20;;;;;;5072755;28;20208;-66
2021/10/04 09:11:40;;;;;;;8.75;4.82;;;34.90;48.20;;;;;;5070190;28;20243;-68
2021/10/04 09:14:12;;;;;;;8.25;4.80;;;36.90;43.00;;;;;;5073922;28;20201;-68
2021/10/04 09:17:00;;;;;;;8.23;4.47;;;38.00;40.40;;;;;;5073183;28;20197;-68
2021/10/04 09:19:31;;;;;;;7.90;4.65;;;39.50;37.40;;;;;;5071575;28;20271;-67
2021/10/04 09:22:05;;;;;;;5.25;4.75;;;40.40;36.00;;;;;;5069167;28;20211;-70
2021/10/04 09:24:32;;;;;;;6.93;5.95;;;41.40;34.50;;;;;;5070507;28;20710;-68
2021/10/04 09:26:59;;;;;;;7.00;4.47;;;42.20;33.10;;;;;;5065690;28;20201;-68
2021/10/04 09:29:26;;;;;;;8.25;5.07;;;42.70;32.10;;;;;;5069466;28;20721;-71
2021/10/04 09:31:53;;;;;;;6.28;4.32;;;43.10;31.70;;;;;;5071830;28;20215;-70
2021/10/04 09:34:22;;;;;;;8.23;4.53;;;43.20;30.70;;;;;;5071267;28;20228;-70
2021/10/04 09:36:51;;;;;;;8.13;4.72;;;43.40;30.60;;;;;;5068912;28;20284;-70
2021/10/04 09:39:25;;;;;;;5.45;4.20;;;43.50;30.20;;;;;;5068075;28;20225;-70
2021/10/04 09:42:08;;;;;;;6.75;4.85;;;43.80;30.00;;;;;;5065633;28;20442;-70
2021/10/04 09:44:54;;;;;;;6.35;4.95;;;43.90;29.30;;;;;;5066077;28;20204;-70
2021/10/04 09:47:25;;;;;;;8.15;4.70;;;43.90;29.10;;;;;;5070365;28;20197;-72
2021/10/04 09:49:55;;;;;;;8.68;5.07;;;44.30;29.30;;;;;;5071206;28;20196;-72
2021/10/04 09:52:37;;;;;;;7.40;4.63;;;45.10;28.90;;;;;;5071581;28;20205;-70
2021/10/04 09:55:16;;;;;;;7.72;5.68;;;45.70;28.20;;;;;;5070286;28;20234;-70
2021/10/04 09:57:43;;;;;;;6.90;4.43;;;46.00;28.10;;;;;;5072911;28;20201;-70
2021/10/04 10:00:11;;;;;;;7.18;4.18;;;46.10;27.80;;;;;;5073066;28;20321;-70
2021/10/04 10:02:38;;;;;;;10.07;5.05;;;46.10;27.70;;;;;;5071040;28;20578;-69
2021/10/04 10:05:07;;;;;;;8.10;4.95;;;45.90;27.70;;;;;;5071972;28;20201;-70
2021/10/04 10:07:35;;;;;;;6.55;4.32;;;46.10;27.60;;;;;;5072373;28;20196;-69
2021/10/04 10:10:02;;;;;;;6.00;4.68;;;45.90;27.30;;;;;;5073062;28;20215;-71
2021/10/04 10:12:31;;;;;;;6.47;4.40;;;45.90;27.40;;;;;;5072260;28;20236;-70
2021/10/04 10:14:58;;;;;;;9.75;4.43;;;46.10;27.40;;;;;;5070278;28;20578;-71
2021/10/04 10:17:29;;;;;;;7.53;4.50;;;46.50;27.20;;;;;;5069728;28;20645;-70
2021/10/04 10:19:59;;;;;;;6.25;4.82;;;47.00;26.60;;;;;;5071584;28;20685;-71
2021/10/04 10:22:29;;;;;;;4.50;4.13;;;47.20;26.70;;;;;;5071201;28;20230;-70
2021/10/04 10:24:57;;;;;;;6.30;4.30;;;47.10;26.50;;;;;;5069902;28;20212;-70
2021/10/04 10:27:42;;;;;;;8.73;4.72;;;47.00;26.60;;;;;;5072223;28;20222;-70
2021/10/04 10:30:19;;;;;;;6.65;4.55;;;46.80;26.50;;;;;;5068508;28;20205;-70
2021/10/04 10:32:46;;;;;;;7.43;4.60;;;47.20;26.70;;;;;;5066543;28;20200;-69
2021/10/04 10:35:13;;;;;;;8.52;4.38;;;47.50;26.40;;;;;;5070723;28;20224;-71
2021/10/04 10:37:49;;;;;;;10.00;5.38;;;47.70;26.30;;;;;;5067436;28;20267;-70
2021/10/04 10:40:18;;;;;;;6.55;4.80;;;48.40;26.00;;;;;;5068659;28;20269;-69
2021/10/04 10:43:03;;;;;;;5.18;4.63;;;49.00;25.70;;;;;;5070972;28;20301;-69
2021/10/04 10:45:42;;;;;;;6.15;4.40;;;48.70;25.60;;;;;;5070753;28;20208;-70
2021/10/04 10:48:11;;;;;;;7.60;4.95;;;48.40;25.60;;;;;;5063989;28;20560;-70
2021/10/04 10:50:43;;;;;;;6.97;4.68;;;47.10;25.50;;;;;;5070509;28;20193;-70
2021/10/04 10:53:20;;;;;;;6.35;4.78;;;46.10;26.30;;;;;;5070928;28;20207;-69
2021/10/04 10:55:55;;;;;;;8.15;4.45;;;45.30;27.30;;;;;;5064856;28;20197;-69
2021/10/04 10:58:25;;;;;;;6.93;4.35;;;45.00;27.50;;;;;;5067863;28;20631;-69
2021/10/04 11:01:20;;;;;;;5.43;4.80;;;45.20;27.60;;;;;;5066295;28;20217;-69
2021/10/04 11:03:49;;;;;;;6.07;4.40;;;45.70;27.20;;;;;;5069033;28;20199;-72
2021/10/04 11:06:16;;;;;;;5.78;3.90;;;45.50;27.00;;;;;;5068720;28;20234;-69
2021/10/04 11:09:01;;;;;;;6.10;4.13;;;45.10;27.50;;;;;;5069939;28;20235;-68
2021/10/04 11:11:37;;;;;;;7.38;3.97;;;44.70;27.70;;;;;;5068346;28;20288;-69
2021/10/04 11:14:19;;;;;;;5.32;4.55;;;44.80;27.80;;;;;;5069921;28;20210;-69
2021/10/04 11:17:03;;;;;;;7.60;4.30;;;45.80;27.30;;;;;;5066301;28;20944;-68
2021/10/04 11:19:35;;;;;;;5.03;4.43;;;46.60;26.70;;;;;;5080638;28;20222;-69
2021/10/04 11:22:04;;;;;;;9.50;4.68;;;47.00;26.60;;;;;;5075962;28;20746;-68
2021/10/04 11:24:30;;;;;;;8.35;5.13;;;47.20;26.30;;;;;;5070252;28;20316;-70
2021/10/04 11:27:01;;;;;;;7.45;4.38;;;46.90;26.60;;;;;;5069213;28;20219;-70
2021/10/04 11:29:30;;;;;;;7.65;4.75;;;45.90;26.80;;;;;;5073380;28;20663;-70
2021/10/04 11:31:57;;;;;;;4.85;4.25;;;44.60;27.20;;;;;;5074064;28;20212;-68
2021/10/04 11:34:25;;;;;;;9.10;4.32;;;44.00;28.00;;;;;;5073178;28;20236;-71
2021/10/04 11:36:54;;;;;;;7.20;4.05;;;43.80;27.90;;;;;;5071999;28;20306;-68
2021/10/04 11:39:24;;;;;;;6.63;4.43;;;43.60;28.20;;;;;;5072071;28;20258;-70
2021/10/04 11:41:54;;;;;;;7.88;4.80;;;44.10;28.20;;;;;;5074458;28;20247;-70
2021/10/04 11:44:22;;;;;;;6.10;4.35;;;44.60;27.50;;;;;;5073654;28;20532;-70
2021/10/04 11:46:52;;;;;;;6.97;4.78;;;44.80;27.40;;;;;;5071230;28;20204;-70
2021/10/04 11:49:20;;;;;;;5.88;4.40;;;44.50;27.80;;;;;;5073415;28;20299;-67
2021/10/04 11:51:50;;;;;;;4.60;3.83;;;44.30;27.80;;;;;;5066941;28;20214;-68
2021/10/04 11:54:40;;;;;;;5.90;4.20;;;44.20;28.10;;;;;;5072619;28;20266;-66
2021/10/04 11:57:09;;;;;;;7.47;3.92;;;44.60;28.10;;;;;;5072819;28;20209;-68
2021/10/04 11:59:54;;;;;;;4.57;4.18;;;45.00;27.50;;;;;;5070988;28;20227;-68
2021/10/04 12:02:25;;;;;;;6.28;4.35;;;45.50;27.40;;;;;;5073301;28;20654;-67
2021/10/04 12:04:52;;;;;;;6.05;3.95;;;46.00;26.80;;;;;;5068478;28;20679;-66
2021/10/04 12:07:21;;;;;;;5.70;3.50;;;46.50;26.60;;;;;;5067211;28;20651;-67
2021/10/04 12:09:58;;;;;;;4.78;4.25;;;46.70;26.20;;;;;;5073825;28;20641;-68
2021/10/04 12:12:35;;;;;;;7.78;3.83;;;46.10;26.80;;;;;;5074364;28;20590;-68
2021/10/04 12:15:04;;;;;;;7.32;4.32;;;45.60;26.90;;;;;;5073696;28;20623;-67
2021/10/04 12:17:36;;;;;;;8.05;4.45;;;45.00;27.40;;;;;;5074227;28;20670;-69
2021/10/04 12:20:05;;;;;;;6.70;4.55;;;44.20;28.00;;;;;;5074159;28;20213;-67
2021/10/04 12:22:33;;;;;;;9.25;4.40;;;43.60;28.20;;;;;;5074539;28;20288;-67
2021/10/04 12:25:00;;;;;;;7.38;4.45;;;43.30;28.70;;;;;;5073479;28;20569;-68
2021/10/04 12:27:27;;;;;;;7.35;3.97;;;43.70;28.50;;;;;;5074855;28;20201;-69
2021/10/04 12:29:58;;;;;;;8.00;4.00;;;44.20;28.00;;;;;;5074474;28;20197;-67
2021/10/04 12:32:28;;;;;;;8.38;4.40;;;43.80;28.10;;;;;;5074018;28;20211;-67
2021/10/04 12:35:16;;;;;;;5.97;3.88;;;43.30;28.60;;;;;;5072541;28;20266;-66
2021/10/04 12:37:47;;;;;;;7.78;4.10;;;43.40;28.60;;;;;;5073798;28;20654;-67
2021/10/04 12:40:30;;;;;;;6.13;4.18;;;43.50;28.50;;;;;;5074312;28;20216;-70
2021/10/04 12:43:03;;;;;;;4.70;4.03;;;43.30;28.40;;;;;;5073017;28;20189;-68
2021/10/04 12:45:31;;;;;;;8.63;4.05;;;42.60;28.80;;;;;;5073856;28;20198;-69
2021/10/04 12:48:02;;;;;;;5.70;4.15;;;41.70;29.50;;;;;;5072031;28;20614;-69
2021/10/04 12:50:33;;;;;;;6.75;4.22;;;41.20;30.00;;;;;;5072857;28;20197;-68